Latest Weather Observations for Wynyard

IDT60801

Issued at 8:31 pm EDT Tuesday 9 February 2016 (issued every 30 minutes, with the page automatically refreshed every 10 minutes)

About weather observations | Map of weather stations | Latest weather observations for TAS | Other Formats
Station Details ID: 091107 Name: WYNYARD AIRPORT Lat: -41.00 Lon: 145.73 Height: 12.0 m
Data from the previous 72 hours. | See also: Recent months at Wynyard
Date/Time
EDT
Temp
°C
App
Temp
°C
Dew
Point
Rel
Hum
%
Delta-T
°C
Wind Press
QNH
hPa
Press
MSL
hPa
Rain
since 9 am
mm
Dir
 
Spd
km/h
Gust
km/h
Spd
kts
Gust
kts
09/08:30pm 18.9 19.3 15.2 79 2.2 NNW 7 7 4 4 1016.4 1016.4 0.0
09/08:00pm 19.0 19.5 15.5 80 2.1 NNE 7 9 4 5 1016.5 1016.5 0.0
09/07:30pm 19.5 19.6 15.6 78 2.3 NE 9 13 5 7 1016.5 1016.5 0.0
09/07:00pm 19.9 19.9 15.3 75 2.7 NE 9 13 5 7 1016.5 1016.5 0.0
09/06:30pm 20.0 20.1 15.6 76 2.6 NE 9 13 5 7 1016.5 1016.5 0.0
09/06:00pm 20.1 20.2 15.5 75 2.7 ENE 9 13 5 7 1017.1 1017.0 0.0
09/05:30pm 20.1 19.7 15.3 74 2.8 NNE 11 17 6 9 1017.3 1017.2 0.0
09/05:00pm 21.1 20.4 15.4 70 3.4 NE 13 19 7 10 1017.4 1017.3 0.0
09/04:30pm 21.7 20.5 16.0 70 3.4 NE 17 22 9 12 1017.6 1017.5 0.0
09/04:00pm 21.4 19.6 15.9 71 3.3 ENE 20 26 11 14 1017.9 1017.8 0.0
09/03:30pm 22.0 20.9 16.3 70 3.5 ENE 17 24 9 13 1018.2 1018.1 0.0
09/03:00pm 22.2 20.6 16.0 68 3.7 ENE 19 24 10 13 1018.6 1018.5 0.0
09/02:30pm 21.8 20.2 15.9 69 3.5 NE 19 26 10 14 1019.1 1019.0 0.0
09/02:00pm 22.4 21.2 16.0 67 3.9 ENE 17 24 9 13 1019.5 1019.4 0.0
09/01:30pm 22.0 20.7 15.8 68 3.7 ENE 17 28 9 15 1019.7 1019.6 0.0
09/01:00pm 22.1 20.3 16.1 69 3.6 ENE 20 26 11 14 1019.8 1019.7 0.0
09/12:30pm 22.7 20.4 15.8 65 4.2 E 22 32 12 17 1020.0 1019.9 0.0
09/12:00pm 22.5 20.3 14.9 62 4.5 E 20 32 11 17 1020.3 1020.2 0.0
09/11:30am 22.8 20.5 15.6 64 4.3 E 22 32 12 17 1020.4 1020.3 0.0
09/11:00am 22.0 19.9 15.1 65 4.1 ESE 20 32 11 17 1020.5 1020.4 0.0
09/10:30am 21.5 19.0 15.1 67 3.8 ESE 22 30 12 16 1020.8 1020.7 0.0
09/10:00am 22.3 20.3 15.4 65 4.1 E 20 32 11 17 1020.6 1020.5 0.0
09/09:30am 21.1 19.1 15.0 68 3.6 ESE 19 32 10 17 1020.8 1020.7 0.0
09/09:00am 20.3 18.6 12.5 61 4.4 SE 13 19 7 10 1020.8 1020.7 0.0
09/08:30am 20.6 19.0 12.8 61 4.4 SSE 13 20 7 11 1020.7 1020.6 0.0
09/08:00am 17.9 16.8 10.8 63 3.8 SW 7 9 4 5 1020.6 1020.5 0.0
09/07:30am 16.7 14.6 9.6 63 3.7 SSW 11 13 6 7 1020.3 1020.2 0.0
09/07:00am 16.4 13.7 9.1 62 3.8 SSW 13 17 7 9 1020.3 1020.2 0.0
09/06:30am 16.3 13.6 9.0 62 3.8 SW 13 17 7 9 1020.2 1020.1 0.0
09/06:00am 16.0 13.8 9.2 64 3.5 SW 11 15 6 8 1019.8 1019.7 0.0
09/05:30am 14.5 12.5 8.7 68 2.9 W 9 13 5 7 1019.7 1019.6 0.0
09/05:00am 15.7 13.0 8.9 64 3.5 SW 13 15 7 8 1019.6 1019.5 0.0
09/04:30am 15.4 13.1 8.9 65 3.3 WSW 11 19 6 10 1019.7 1019.6 0.0
09/04:00am 15.6 12.9 9.1 65 3.3 SW 13 17 7 9 1019.6 1019.5 0.0
09/03:30am 15.5 13.2 9.0 65 3.3 SW 11 15 6 8 1019.9 1019.8 0.0
09/03:00am 15.6 13.2 8.8 64 3.5 SW 11 17 6 9 1019.8 1019.7 0.0
09/02:30am 16.0 14.4 8.7 62 3.7 S 7 13 4 7 1019.8 1019.7 0.0
09/02:00am 16.2 13.5 8.9 62 3.7 S 13 19 7 10 1019.7 1019.6 0.0
09/01:30am 16.7 13.2 8.9 60 4.0 SSW 17 28 9 15 1019.7 1019.6 0.0
09/01:00am 16.9 13.8 8.8 59 4.2 SW 15 26 8 14 1019.6 1019.5 0.0
09/12:30am 16.7 12.8 9.4 62 3.8 SW 20 30 11 16 1019.6 1019.5 0.0
09/12:00am 16.2 14.1 9.6 65 3.4 WSW 11 20 6 11 1019.9 1019.8 0.0
 
Date/Time
EDT
Temp
°C
App
Temp
°C
Dew
Point
Rel
Hum
%
Delta-T
°C
Wind Press
QNH
hPa
Press
MSL
hPa
Rain
since 9 am
mm
Dir
 
Spd
km/h
Gust
km/h
Spd
kts
Gust
kts
08/11:30pm 16.5 13.7 9.9 65 3.5 WSW 15 22 8 12 1019.8 1019.7 0.0
08/11:00pm 16.7 11.5 10.1 65 3.5 SW 28 39 15 21 1019.8 1019.7 0.0
08/10:30pm 16.9 13.1 9.8 63 3.7 SW 20 28 11 15 1020.4 1020.3 0.0
08/10:00pm 17.6 11.9 9.8 60 4.1 SW 30 41 16 22 1020.1 1020.0 0.0
08/09:53pm 17.7 12.4 9.8 60 4.2 WSW 28 41 15 22 1020.0 1019.9 0.0
08/09:30pm 18.0 15.5 9.6 58 4.4 SW 13 20 7 11 1020.3 1020.2 0.0
08/09:00pm 18.8 15.0 9.8 56 4.8 SW 20 26 11 14 1019.7 1019.6 0.0
08/08:30pm 19.9 16.2 10.0 53 5.3 SW 20 35 11 19 1019.4 1019.3 0.0
08/08:00pm 21.4 16.9 9.9 48 6.2 SW 24 37 13 20 1019.0 1018.9 0.0
08/07:30pm 23.0 18.3 9.4 42 7.3 SW 24 35 13 19 1018.6 1018.5 0.0
08/07:00pm 24.1 18.8 9.7 40 7.8 SW 28 37 15 20 1018.1 1018.0 0.0
08/06:30pm 25.5 19.7 8.1 33 9.3 SW 28 39 15 21 1017.7 1017.6 0.0
08/06:00pm 26.2 20.3 7.3 30 10.0 SSW 28 35 15 19 1017.5 1017.4 0.0
08/05:30pm 26.9 22.4 8.4 31 10.0 SSW 22 33 12 18 1017.3 1017.2 0.0
08/05:00pm 28.2 23.4 9.0 30 10.6 SW 24 33 13 18 1017.3 1017.2 0.0
08/04:30pm 27.8 23.1 9.1 31 10.3 S 24 37 13 20 1017.4 1017.3 0.0
08/04:00pm 27.5 22.3 8.9 31 10.2 S 26 44 14 24 1017.3 1017.2 0.0
08/03:30pm 28.2 23.8 9.0 30 10.6 SW 22 39 12 21 1017.5 1017.4 0.0
08/03:00pm 27.8 23.9 9.6 32 10.1 SSW 20 30 11 16 1017.7 1017.6 0.0
08/02:30pm 28.1 23.6 9.9 32 10.2 SW 24 35 13 19 1018.0 1017.9 0.0
08/02:00pm 26.9 22.2 7.9 30 10.2 SW 22 37 12 20 1018.2 1018.1 0.0
08/01:30pm 26.4 21.2 8.8 33 9.6 SW 26 37 14 20 1018.3 1018.2 0.0
08/01:00pm 25.8 21.9 9.6 36 8.9 WSW 20 32 11 17 1018.5 1018.4 0.0
08/12:30pm 25.5 21.9 9.7 37 8.7 SW 19 30 10 16 1018.8 1018.7 0.0
08/12:00pm 24.4 19.2 8.8 37 8.4 SW 26 39 14 21 1019.0 1018.9 0.0
08/11:30am 23.6 18.7 9.9 42 7.5 SW 26 35 14 19 1019.3 1019.2 0.0
08/11:00am 22.9 18.4 11.3 48 6.5 WSW 26 33 14 18 1019.3 1019.2 0.0
08/10:30am 22.5 18.5 11.9 51 6.0 SW 24 35 13 19 1019.4 1019.3 0.0
08/10:00am 22.0 17.5 12.5 54 5.4 SSW 28 41 15 22 1019.4 1019.3 0.0
08/09:30am 20.9 17.0 12.1 57 4.9 SW 24 41 13 22 1019.5 1019.4 0.0
08/09:00am 19.8 17.8 14.0 69 3.3 W 17 20 9 11 1019.5 1019.4 0.0
08/08:30am 18.2 16.7 14.1 77 2.3 W 15 19 8 10 1019.4 1019.3 0.0
08/08:00am 17.1 16.1 14.6 85 1.4 W 13 15 7 8 1019.3 1019.2 0.0
08/07:30am 15.5 14.3 14.0 91 0.8 W 13 17 7 9 1019.1 1019.0 0.0
08/07:00am 13.2 12.1 12.1 93 0.6 WNW 9 11 5 6 1018.7 1018.6 0.0
08/06:30am 12.9 11.7 11.5 91 0.7 WNW 9 11 5 6 1018.4 1018.3 0.0
08/06:00am 14.7 13.1 12.9 89 1.0 WNW 13 15 7 8 1018.0 1017.9 0.0
08/05:30am 14.6 13.1 13.0 90 0.9 WNW 13 15 7 8 1017.7 1017.6 0.0
08/05:00am 14.5 13.0 13.0 91 0.8 WNW 13 13 7 7 1017.6 1017.5 0.0
08/04:30am 14.7 13.4 13.6 93 0.6 WNW 13 15 7 8 1017.6 1017.5 0.0
08/04:00am 13.9 12.2 12.6 92 0.7 W 13 15 7 8 1017.7 1017.6 0.0
08/03:30am 14.7 12.9 13.4 92 0.7 WNW 15 15 8 8 1017.7 1017.6 0.0
08/03:00am 14.4 13.7 13.3 93 0.6 WNW 9 11 5 6 1017.9 1017.8 0.0
08/02:30am 14.7 12.9 13.4 92 0.7 WNW 15 17 8 9 1017.9 1017.8 0.0
08/02:00am 15.4 13.9 14.3 93 0.6 WNW 15 15 8 8 1018.0 1017.9 0.0
08/01:30am 14.2 13.1 13.1 93 0.6 WNW 11 13 6 7 1018.1 1018.0 0.0
08/01:00am 14.4 13.8 13.4 94 0.6 WSW 9 9 5 5 1018.1 1018.0 0.0
08/12:30am 14.5 14.2 13.4 93 0.6 WSW 7 9 4 5 1017.8 1017.7 0.0
08/12:00am 14.4 13.7 13.1 92 0.7 SW 9 11 5 6 1017.9 1017.8 0.0
 
Date/Time
EDT
Temp
°C
App
Temp
°C
Dew
Point
Rel
Hum
%
Delta-T
°C
Wind Press
QNH
hPa
Press
MSL
hPa
Rain
since 9 am
mm
Dir
 
Spd
km/h
Gust
km/h
Spd
kts
Gust
kts
07/11:30pm 15.1 14.9 13.5 90 0.9 WSW 7 9 4 5 1018.0 1017.9 0.0
07/11:00pm 16.4 16.8 14.8 90 0.9 SW 6 7 3 4 1018.1 1018.0 0.0
07/10:30pm 17.1 18.3 14.9 87 1.3 W 2 7 1 4 1018.2 1018.1 0.0
07/10:00pm 17.9 19.6 15.3 85 1.5 CALM 0 4 0 2 1018.2 1018.1 0.0
07/09:30pm 18.3 18.4 15.6 84 1.6 W 9 11 5 6 1017.8 1017.7 0.0
07/09:00pm 19.7 19.9 15.8 78 2.3 NW 9 13 5 7 1017.5 1017.4 0.0
07/08:30pm 20.2 19.6 15.6 75 2.7 NW 13 17 7 9 1017.2 1017.1 0.0
07/08:00pm 20.6 19.8 15.2 71 3.2 NNW 13 19 7 10 1016.8 1016.8 0.0
07/07:30pm 21.6 20.6 14.7 65 4.1 NW 13 22 7 12 1016.8 1016.8 0.0
07/07:00pm 22.1 21.0 15.2 65 4.1 NNW 15 22 8 12 1016.8 1016.8 0.0
07/06:30pm 22.4 21.3 15.3 64 4.2 NNW 15 19 8 10 1016.5 1016.5 0.0
07/06:00pm 22.4 21.1 15.7 66 4.0 N 17 20 9 11 1016.4 1016.4 0.0
07/05:30pm 22.4 20.6 15.5 65 4.1 NNE 19 24 10 13 1016.6 1016.6 0.0
07/05:00pm 22.6 21.2 16.6 69 3.7 NNE 19 24 10 13 1016.7 1016.7 0.0
07/04:30pm 22.2 20.6 16.5 70 3.5 NNE 20 28 11 15 1016.7 1016.7 0.0
07/04:00pm 22.7 21.2 16.7 69 3.7 NNE 20 26 11 14 1017.1 1017.0 0.0
07/03:30pm 22.4 20.9 16.4 69 3.6 NNE 19 24 10 13 1017.2 1017.1 0.0
07/03:00pm 22.3 20.7 15.9 67 3.8 NNE 19 22 10 12 1017.4 1017.3 0.0
07/02:30pm 22.5 21.2 16.8 70 3.5 NNE 19 22 10 12 1017.7 1017.6 0.0
07/02:00pm 22.7 21.4 16.9 70 3.5 NE 19 26 10 14 1017.6 1017.5 0.0
07/01:30pm 23.0 21.7 17.2 70 3.6 NE 20 26 11 14 1017.7 1017.6 0.0
07/01:00pm 22.8 20.8 16.4 67 3.9 NE 22 28 12 15 1017.7 1017.6 0.0
07/12:30pm 23.1 21.2 17.6 71 3.4 NE 24 28 13 15 1017.9 1017.8 0.0
07/12:00pm 22.5 21.1 17.0 71 3.4 ENE 20 26 11 14 1018.3 1018.2 0.0
07/11:30am 22.4 20.8 16.4 69 3.6 ENE 20 28 11 15 1018.3 1018.2 0.0
07/11:00am 22.3 21.2 17.4 74 3.0 E 19 28 10 15 1018.2 1018.1 0.0
07/10:30am 21.4 19.8 16.6 74 2.9 ENE 20 28 11 15 1018.1 1018.0 0.0
07/10:00am 20.9 19.7 16.1 74 2.9 E 17 24 9 13 1018.2 1018.1 0.0
07/09:30am 21.0 20.0 16.6 76 2.7 E 17 24 9 13 1018.1 1018.0 0.0
07/09:00am 20.5 19.8 16.3 77 2.5 ENE 15 22 8 12 1018.2 1018.1 0.0
07/08:30am 20.0 19.4 16.6 81 2.1 E 15 22 8 12 1017.8 1017.7 0.0
07/08:00am 19.6 19.4 16.6 83 1.8 E 13 20 7 11 1017.7 1017.6 0.0
07/07:30am 19.4 20.0 16.8 85 1.6 E 9 15 5 8 1017.7 1017.6 0.0
07/07:00am 18.7 19.3 16.7 88 1.2 E 9 13 5 7 1017.5 1017.4 0.0
07/06:30am 18.4 18.8 16.2 87 1.3 E 9 15 5 8 1017.2 1017.1 0.0
07/06:28am 18.3 18.6 16.1 87 1.3 E 9 15 5 8 1017.2 1017.1 0.0
07/06:00am 18.6 18.7 16.4 87 1.3 E 11 17 6 9 1016.8 1016.8 0.0
07/05:50am 18.5 18.5 16.3 87 1.3 E 11 17 6 9 1016.7 1016.7 0.0
07/05:46am 18.4 18.4 16.2 87 1.3 E 11 15 6 8 1016.7 1016.7 0.0
07/05:30am 18.4 18.8 16.2 87 1.3 E 9 13 5 7 1016.7 1016.7 0.0
07/05:08am 18.5 18.4 16.1 86 1.4 ENE 11 19 6 10 1016.6 1016.6 0.0
07/05:00am 18.5 18.4 16.1 86 1.4 ENE 11 19 6 10 1016.6 1016.6 0.0
07/04:30am 18.6 18.1 16.0 85 1.5 ENE 13 17 7 9 1016.6 1016.6 0.0
07/04:00am 18.7 18.3 16.1 85 1.5 ENE 13 19 7 10 1017.0 1016.9 0.0
07/03:30am 19.2 18.5 16.4 84 1.7 ENE 15 22 8 12 1017.3 1017.2 0.0
07/03:00am 19.4 19.0 16.2 82 1.9 ENE 13 20 7 11 1017.4 1017.3 0.0
07/02:30am 19.3 19.0 16.5 84 1.7 ENE 13 17 7 9 1017.5 1017.4 0.0
07/02:00am 19.4 18.8 16.6 84 1.7 ENE 15 20 8 11 1017.6 1017.5 0.0
07/01:57am 19.4 18.7 16.4 83 1.8 ENE 15 20 8 11 1017.6 1017.5 0.0
07/01:32am 19.1 18.9 16.7 86 1.4 E 13 20 7 11 1017.6 1017.5 0.0
07/01:30am 19.1 18.9 16.7 86 1.4 E 13 20 7 11 1017.6 1017.5 0.0
07/01:00am 18.5 19.0 16.5 88 1.2 E 9 15 5 8 1017.8 1017.7 0.0
07/12:30am 17.5 17.1 15.3 87 1.3 SE 11 15 6 8 1017.9 1017.8 0.0
07/12:19am 17.7 17.4 15.5 87 1.3 SE 11 15 6 8 1018.0 1017.9 0.0
07/12:00am 17.7 17.3 15.3 86 1.4 SE 11 15 6 8 1018.1 1018.0 0.0
 
Date/Time
EDT
Temp
°C
App
Temp
°C
Dew
Point
Rel
Hum
%
Delta-T
°C
Wind Press
QNH
hPa
Press
MSL
hPa
Rain
since 9 am
mm
Dir
 
Spd
km/h
Gust
km/h
Spd
kts
Gust
kts
06/11:41pm 17.8 17.4 15.2 85 1.5 SE 11 15 6 8 1018.1 1018.0 0.0
06/11:30pm 17.7 17.3 15.1 85 1.5 SE 11 15 6 8 1018.2 1018.1 0.0
06/11:00pm 16.7 16.4 14.5 87 1.3 SE 9 11 5 6 1018.3 1018.2 0.0
06/10:30pm 18.2 18.4 15.8 86 1.4 E 9 13 5 7 1018.3 1018.2 0.0
06/10:00pm 17.7 17.0 14.4 81 1.9 ESE 11 17 6 9 1018.4 1018.3 0.0
06/09:30pm 17.3 17.2 14.0 81 1.9 ESE 7 9 4 5 1018.3 1018.2 0.0
06/09:00pm 18.7 17.7 14.6 77 2.4 ESE 13 15 7 8 1018.1 1018.0 0.0

Other Formats:

Comma delimited format used in spreadsheet applications
http://www.bom.gov.au/fwo/IDT60801/IDT60801.95957.axf

JavaScript Object Notation format (JSON) in row-major order
http://www.bom.gov.au/fwo/IDT60801/IDT60801.95957.json